EJA111 KEGE-KSAT
Flight info
| Callsign | EJA111 |
|---|---|
| Flight time | N/A |
| Altitude | 39000 |
| Route | BEVVR1 APRES COORZ BRK TRVLL DNKIN2 |
| Aircraft | C750/M-SBDE3FGHRWXY/S |
Departure
| Time | N/A |
|---|---|
| Airport | Eagle County Regional Airport (KEGE) |
Arrival
| Time | 2026-04-22 20:05 |
|---|---|
| Airport | San Antonio International Airport (KSAT) |
| Time | Latitude | Longitude | Altitude | Speed | Heading |
|---|---|---|---|---|---|
| 2026-04-22 18:30 | 39.83406 | -106.01290 | 29441 ft | 516 kts | 84° |
| 2026-04-22 18:30 | 39.83829 | -105.96647 | 30018 ft | 516 kts | 84° |
| 2026-04-22 18:31 | 39.84251 | -105.92014 | 30562 ft | 517 kts | 85° |
| 2026-04-22 18:31 | 39.84667 | -105.87365 | 31136 ft | 516 kts | 85° |
| 2026-04-22 18:31 | 39.84768 | -105.82789 | 31818 ft | 509 kts | 95° |
| 2026-04-22 18:31 | 39.84359 | -105.78249 | 32485 ft | 503 kts | 104° |
| 2026-04-22 18:32 | 39.83807 | -105.75274 | 32897 ft | 498 kts | 110° |
| 2026-04-22 18:32 | 39.82134 | -105.69772 | 33613 ft | 492 kts | 121° |
| 2026-04-22 18:32 | 39.80382 | -105.65979 | 34071 ft | 486 kts | 130° |
| 2026-04-22 18:32 | 39.78282 | -105.62598 | 34777 ft | 473 kts | 138° |
| 2026-04-22 18:33 | 39.75974 | -105.59681 | 35738 ft | 456 kts | 143° |
| 2026-04-22 18:33 | 39.73656 | -105.56897 | 36334 ft | 452 kts | 143° |
| 2026-04-22 18:33 | 39.71357 | -105.54134 | 36932 ft | 448 kts | 144° |
| 2026-04-22 18:33 | 39.69076 | -105.51400 | 37615 ft | 444 kts | 144° |
| 2026-04-22 18:34 | 39.66820 | -105.48700 | 38295 ft | 439 kts | 144° |
| 2026-04-22 18:34 | 39.64607 | -105.46057 | 38687 ft | 439 kts | 144° |
| 2026-04-22 18:34 | 39.62328 | -105.43343 | 38683 ft | 450 kts | 144° |
| 2026-04-22 18:35 | 39.57634 | -105.37735 | 38703 ft | 468 kts | 144° |
| 2026-04-22 18:35 | 39.53597 | -105.32925 | 38692 ft | 481 kts | 144° |
| 2026-04-22 18:36 | 39.48588 | -105.26971 | 38701 ft | 497 kts | 144° |
| 2026-04-22 18:36 | 39.43466 | -105.20881 | 38685 ft | 501 kts | 144° |
| 2026-04-22 18:37 | 39.37489 | -105.13807 | 38680 ft | 501 kts | 144° |
| 2026-04-22 18:37 | 39.33185 | -105.08721 | 38683 ft | 500 kts | 144° |
| 2026-04-22 18:38 | 39.28092 | -105.02715 | 38688 ft | 499 kts | 144° |
| 2026-04-22 18:38 | 39.22979 | -104.96696 | 38731 ft | 497 kts | 144° |
| 2026-04-22 18:39 | 39.15332 | -104.87720 | 38817 ft | 495 kts | 144° |
| 2026-04-22 18:39 | 39.10236 | -104.81751 | 38855 ft | 495 kts | 144° |
| 2026-04-22 18:40 | 39.05145 | -104.75803 | 38881 ft | 494 kts | 144° |
| 2026-04-22 18:40 | 39.00084 | -104.69901 | 38874 ft | 495 kts | 144° |
| 2026-04-22 18:41 | 38.97529 | -104.66926 | 38981 ft | 496 kts | 144° |
| 2026-04-22 18:41 | 38.94905 | -104.64083 | 38963 ft | 490 kts | 150° |
| 2026-04-22 18:41 | 38.89047 | -104.59846 | 38955 ft | 481 kts | 160° |
| 2026-04-22 18:42 | 38.83047 | -104.55967 | 38937 ft | 485 kts | 160° |
| 2026-04-22 18:42 | 38.76986 | -104.52054 | 38906 ft | 491 kts | 160° |
| 2026-04-22 18:43 | 38.70856 | -104.48106 | 38863 ft | 495 kts | 160° |
| 2026-04-22 18:43 | 38.64718 | -104.44155 | 38710 ft | 499 kts | 160° |
| 2026-04-22 18:44 | 38.58498 | -104.40164 | 38747 ft | 502 kts | 159° |
| 2026-04-22 18:44 | 38.52235 | -104.36150 | 38782 ft | 505 kts | 160° |
| 2026-04-22 18:45 | 38.45937 | -104.32124 | 38786 ft | 508 kts | 160° |
| 2026-04-22 18:45 | 38.39611 | -104.28082 | 38800 ft | 509 kts | 160° |
| 2026-04-22 18:46 | 38.33287 | -104.24053 | 38796 ft | 507 kts | 160° |
| 2026-04-22 18:46 | 38.26982 | -104.20044 | 38785 ft | 505 kts | 158° |
| 2026-04-22 18:47 | 38.20745 | -104.16089 | 38757 ft | 504 kts | 159° |
| 2026-04-22 18:47 | 38.14477 | -104.12119 | 38721 ft | 503 kts | 159° |
| 2026-04-22 18:48 | 38.08217 | -104.08163 | 38708 ft | 502 kts | 159° |
| 2026-04-22 18:48 | 38.01974 | -104.04225 | 38701 ft | 501 kts | 159° |
| 2026-04-22 18:49 | 37.95778 | -104.00325 | 38700 ft | 500 kts | 159° |
| 2026-04-22 18:49 | 37.89542 | -103.96406 | 38706 ft | 500 kts | 159° |
| 2026-04-22 18:50 | 37.83309 | -103.92497 | 38695 ft | 500 kts | 159° |
| 2026-04-22 18:50 | 37.77082 | -103.88598 | 38704 ft | 499 kts | 159° |
| 2026-04-22 18:51 | 37.70899 | -103.84736 | 38708 ft | 499 kts | 159° |
| 2026-04-22 18:51 | 37.64685 | -103.80859 | 38726 ft | 498 kts | 159° |
| 2026-04-22 18:52 | 37.58481 | -103.76998 | 38722 ft | 497 kts | 159° |
| 2026-04-22 18:52 | 37.52288 | -103.73150 | 38730 ft | 496 kts | 159° |
| 2026-04-22 18:53 | 37.46144 | -103.69340 | 38738 ft | 495 kts | 159° |
| 2026-04-22 18:53 | 37.39962 | -103.65513 | 38737 ft | 494 kts | 159° |
| 2026-04-22 18:54 | 37.33795 | -103.61703 | 38732 ft | 494 kts | 159° |
| 2026-04-22 18:54 | 37.27626 | -103.57898 | 38745 ft | 494 kts | 159° |
| 2026-04-22 18:55 | 37.21459 | -103.54101 | 38756 ft | 494 kts | 159° |
| 2026-04-22 18:55 | 37.15336 | -103.50338 | 38756 ft | 493 kts | 159° |
| 2026-04-22 18:56 | 37.09178 | -103.46561 | 38771 ft | 492 kts | 158° |
| 2026-04-22 18:56 | 37.03021 | -103.42793 | 38774 ft | 492 kts | 159° |
| 2026-04-22 18:57 | 36.96866 | -103.39030 | 38781 ft | 492 kts | 159° |
| 2026-04-22 18:57 | 36.90751 | -103.35300 | 38782 ft | 492 kts | 159° |
| 2026-04-22 18:58 | 36.84597 | -103.31552 | 38774 ft | 492 kts | 159° |
| 2026-04-22 18:58 | 36.78438 | -103.27809 | 38776 ft | 492 kts | 159° |
| 2026-04-22 18:59 | 36.72285 | -103.24075 | 38826 ft | 492 kts | 159° |
| 2026-04-22 18:59 | 36.66166 | -103.20368 | 38786 ft | 493 kts | 159° |
| 2026-04-22 19:00 | 36.59983 | -103.16631 | 38798 ft | 494 kts | 159° |
| 2026-04-22 19:00 | 36.53803 | -103.12901 | 38981 ft | 494 kts | 158° |
| 2026-04-22 19:01 | 36.50708 | -103.11034 | 38788 ft | 494 kts | 158° |
| 2026-04-22 19:01 | 36.47620 | -103.09175 | 38789 ft | 494 kts | 158° |
| 2026-04-22 19:01 | 36.41463 | -103.05473 | 38788 ft | 495 kts | 158° |
| 2026-04-22 19:02 | 36.35269 | -103.01754 | 38783 ft | 496 kts | 158° |
| 2026-04-22 19:02 | 36.29047 | -102.98026 | 38785 ft | 497 kts | 158° |
| 2026-04-22 19:03 | 36.22824 | -102.94303 | 38785 ft | 498 kts | 158° |
| 2026-04-22 19:03 | 36.16581 | -102.90575 | 38798 ft | 499 kts | 158° |
| 2026-04-22 19:04 | 36.10312 | -102.86839 | 38822 ft | 500 kts | 158° |
| 2026-04-22 19:04 | 36.04076 | -102.83128 | 38841 ft | 501 kts | 158° |
| 2026-04-22 19:05 | 35.97784 | -102.79391 | 38857 ft | 503 kts | 158° |
| 2026-04-22 19:05 | 35.91475 | -102.75650 | 38858 ft | 503 kts | 158° |
| 2026-04-22 19:06 | 35.85156 | -102.71911 | 38793 ft | 503 kts | 158° |
| 2026-04-22 19:07 | 35.75746 | -102.66355 | 38795 ft | 502 kts | 158° |
| 2026-04-22 19:07 | 35.69432 | -102.62635 | 38794 ft | 503 kts | 158° |
| 2026-04-22 19:08 | 35.63125 | -102.58925 | 38805 ft | 503 kts | 158° |
| 2026-04-22 19:08 | 35.56857 | -102.55245 | 38811 ft | 503 kts | 158° |
| 2026-04-22 19:09 | 35.50544 | -102.51544 | 38808 ft | 503 kts | 158° |
| 2026-04-22 19:09 | 35.44209 | -102.47838 | 38812 ft | 504 kts | 158° |
| 2026-04-22 19:10 | 35.37870 | -102.44134 | 38821 ft | 505 kts | 158° |
| 2026-04-22 19:10 | 35.31516 | -102.40430 | 38808 ft | 506 kts | 158° |
| 2026-04-22 19:11 | 35.25203 | -102.36756 | 38838 ft | 506 kts | 158° |
| 2026-04-22 19:11 | 35.18849 | -102.33064 | 38840 ft | 506 kts | 158° |
| 2026-04-22 19:12 | 35.12489 | -102.29376 | 38879 ft | 505 kts | 158° |
| 2026-04-22 19:12 | 35.06136 | -102.25697 | 38900 ft | 506 kts | 158° |
| 2026-04-22 19:13 | 34.99819 | -102.22045 | 38926 ft | 506 kts | 158° |
| 2026-04-22 19:13 | 34.93443 | -102.18366 | 38850 ft | 507 kts | 158° |
| 2026-04-22 19:14 | 34.87069 | -102.14695 | 38853 ft | 507 kts | 158° |
| 2026-04-22 19:14 | 34.80679 | -102.11020 | 38851 ft | 508 kts | 158° |
| 2026-04-22 19:15 | 34.75314 | -102.07940 | 38851 ft | 509 kts | 158° |
| 2026-04-22 19:15 | 34.67862 | -102.03671 | 38847 ft | 509 kts | 158° |
| 2026-04-22 19:16 | 34.61455 | -102.00005 | 38849 ft | 508 kts | 158° |
| 2026-04-22 19:16 | 34.55044 | -101.96343 | 38854 ft | 509 kts | 158° |
| 2026-04-22 19:17 | 34.48634 | -101.92688 | 38854 ft | 510 kts | 158° |
| 2026-04-22 19:17 | 34.42251 | -101.89056 | 38889 ft | 510 kts | 158° |
| 2026-04-22 19:18 | 34.35823 | -101.85405 | 38922 ft | 510 kts | 158° |
| 2026-04-22 19:18 | 34.29395 | -101.81758 | 38950 ft | 510 kts | 158° |
| 2026-04-22 19:19 | 34.22971 | -101.78121 | 38975 ft | 510 kts | 158° |
| 2026-04-22 19:19 | 34.16535 | -101.74483 | 38966 ft | 510 kts | 158° |
| 2026-04-22 19:20 | 34.10140 | -101.70874 | 38976 ft | 510 kts | 158° |
| 2026-04-22 19:20 | 34.03698 | -101.67245 | 38954 ft | 511 kts | 158° |
| 2026-04-22 19:21 | 33.97260 | -101.63625 | 38937 ft | 511 kts | 158° |
| 2026-04-22 19:21 | 33.90810 | -101.60002 | 38922 ft | 511 kts | 158° |
| 2026-04-22 19:22 | 33.84356 | -101.56384 | 38908 ft | 511 kts | 158° |
| 2026-04-22 19:22 | 33.77904 | -101.52774 | 38906 ft | 512 kts | 158° |
| 2026-04-22 19:23 | 33.71481 | -101.49186 | 38936 ft | 512 kts | 158° |
| 2026-04-22 19:23 | 33.65018 | -101.45581 | 38930 ft | 512 kts | 158° |
| 2026-04-22 19:24 | 33.58531 | -101.41969 | 38918 ft | 513 kts | 158° |
| 2026-04-22 19:24 | 33.52044 | -101.38363 | 38914 ft | 514 kts | 158° |
| 2026-04-22 19:25 | 33.45549 | -101.34758 | 38913 ft | 514 kts | 158° |
| 2026-04-22 19:25 | 33.39091 | -101.31180 | 38912 ft | 515 kts | 158° |
| 2026-04-22 19:26 | 33.32580 | -101.27580 | 38918 ft | 515 kts | 158° |
| 2026-04-22 19:26 | 33.26070 | -101.23983 | 38918 ft | 516 kts | 158° |
| 2026-04-22 19:27 | 33.19540 | -101.20384 | 38920 ft | 517 kts | 158° |
| 2026-04-22 19:27 | 33.13011 | -101.16790 | 38922 ft | 517 kts | 158° |
| 2026-04-22 19:28 | 33.06453 | -101.13187 | 38923 ft | 518 kts | 158° |
| 2026-04-22 19:28 | 32.99906 | -101.09595 | 38933 ft | 519 kts | 158° |
| 2026-04-22 19:29 | 32.93383 | -101.06022 | 38957 ft | 519 kts | 158° |
| 2026-04-22 19:29 | 32.86810 | -101.02428 | 38978 ft | 520 kts | 158° |
| 2026-04-22 19:30 | 32.81343 | -100.99443 | 38993 ft | 520 kts | 158° |
| 2026-04-22 19:30 | 32.73651 | -100.95250 | 39004 ft | 520 kts | 158° |
| 2026-04-22 19:31 | 32.67058 | -100.91663 | 38991 ft | 521 kts | 158° |
| 2026-04-22 19:31 | 32.60473 | -100.88086 | 38996 ft | 521 kts | 158° |
| 2026-04-22 19:32 | 32.53885 | -100.84512 | 38990 ft | 521 kts | 159° |
| 2026-04-22 19:32 | 32.47278 | -100.80935 | 38973 ft | 522 kts | 159° |
| 2026-04-22 19:33 | 32.40674 | -100.77365 | 38976 ft | 522 kts | 159° |
| 2026-04-22 19:33 | 32.34095 | -100.73814 | 38937 ft | 523 kts | 159° |
| 2026-04-22 19:34 | 32.27472 | -100.70245 | 38941 ft | 524 kts | 159° |
| 2026-04-22 19:34 | 32.20833 | -100.66674 | 38946 ft | 524 kts | 159° |
| 2026-04-22 19:35 | 32.14187 | -100.63104 | 38950 ft | 524 kts | 159° |
| 2026-04-22 19:35 | 32.08656 | -100.60137 | 38946 ft | 525 kts | 159° |
| 2026-04-22 19:36 | 32.00867 | -100.55967 | 38966 ft | 526 kts | 159° |
| 2026-04-22 19:36 | 31.94202 | -100.52403 | 38965 ft | 527 kts | 159° |
| 2026-04-22 19:37 | 31.87554 | -100.48856 | 38952 ft | 527 kts | 159° |
| 2026-04-22 19:37 | 31.80861 | -100.45290 | 38953 ft | 528 kts | 159° |
| 2026-04-22 19:38 | 31.74167 | -100.41729 | 38967 ft | 529 kts | 159° |
| 2026-04-22 19:38 | 31.67457 | -100.38165 | 38967 ft | 529 kts | 159° |
| 2026-04-22 19:39 | 31.60750 | -100.34608 | 38975 ft | 529 kts | 159° |
| 2026-04-22 19:39 | 31.54028 | -100.31049 | 38964 ft | 530 kts | 159° |
| 2026-04-22 19:40 | 31.47335 | -100.27511 | 38970 ft | 530 kts | 159° |
| 2026-04-22 19:40 | 31.40601 | -100.23957 | 38974 ft | 531 kts | 159° |
| 2026-04-22 19:41 | 31.33857 | -100.20403 | 38971 ft | 531 kts | 159° |
| 2026-04-22 19:41 | 31.27119 | -100.16858 | 38977 ft | 532 kts | 159° |
| 2026-04-22 19:42 | 31.20366 | -100.13311 | 38976 ft | 532 kts | 159° |
| 2026-04-22 19:42 | 31.13607 | -100.09766 | 38988 ft | 533 kts | 159° |
| 2026-04-22 19:43 | 31.03445 | -100.04447 | 38984 ft | 534 kts | 159° |
| 2026-04-22 19:43 | 30.96703 | -100.00919 | 38168 ft | 537 kts | 159° |
| 2026-04-22 19:44 | 30.93289 | -99.99126 | 37463 ft | 537 kts | 159° |
| 2026-04-22 19:44 | 30.89874 | -99.97352 | 36759 ft | 538 kts | 159° |
| 2026-04-22 19:44 | 30.86444 | -99.95578 | 36051 ft | 540 kts | 159° |
| 2026-04-22 19:44 | 30.83006 | -99.93788 | 35339 ft | 541 kts | 159° |
| 2026-04-22 19:45 | 30.79566 | -99.91991 | 34631 ft | 543 kts | 159° |
| 2026-04-22 19:45 | 30.76112 | -99.90196 | 33922 ft | 544 kts | 159° |
| 2026-04-22 19:45 | 30.72660 | -99.88408 | 33196 ft | 542 kts | 159° |
| 2026-04-22 19:45 | 30.69219 | -99.86623 | 32489 ft | 540 kts | 159° |
| 2026-04-22 19:46 | 30.65798 | -99.84845 | 31786 ft | 538 kts | 159° |
| 2026-04-22 19:46 | 30.62384 | -99.83075 | 31081 ft | 535 kts | 159° |
| 2026-04-22 19:46 | 30.59091 | -99.81077 | 30349 ft | 536 kts | 148° |
| 2026-04-22 19:46 | 30.56133 | -99.78470 | 29646 ft | 531 kts | 144° |
| 2026-04-22 19:47 | 30.53275 | -99.75865 | 28959 ft | 526 kts | 144° |
| 2026-04-22 19:47 | 30.50406 | -99.73274 | 28269 ft | 520 kts | 144° |
| 2026-04-22 19:47 | 30.48476 | -99.71553 | 27807 ft | 516 kts | 144° |
| 2026-04-22 19:47 | 30.44740 | -99.68221 | 26911 ft | 508 kts | 144° |
| 2026-04-22 19:48 | 30.41966 | -99.65719 | 26239 ft | 502 kts | 144° |
| 2026-04-22 19:48 | 30.39219 | -99.63248 | 25576 ft | 497 kts | 144° |
| 2026-04-22 19:48 | 30.37412 | -99.61634 | 25141 ft | 493 kts | 144° |
| 2026-04-22 19:48 | 30.34707 | -99.59224 | 24490 ft | 488 kts | 144° |
| 2026-04-22 19:49 | 30.32039 | -99.56837 | 23846 ft | 483 kts | 144° |
| 2026-04-22 19:49 | 30.29397 | -99.54469 | 23160 ft | 477 kts | 143° |
| 2026-04-22 19:49 | 30.26792 | -99.52142 | 22539 ft | 469 kts | 144° |
| 2026-04-22 19:49 | 30.24228 | -99.49858 | 21921 ft | 461 kts | 144° |
| 2026-04-22 19:50 | 30.21706 | -99.47610 | 21317 ft | 455 kts | 143° |
| 2026-04-22 19:50 | 30.19218 | -99.45390 | 20725 ft | 448 kts | 143° |
| 2026-04-22 19:50 | 30.16764 | -99.43202 | 20135 ft | 443 kts | 143° |
| 2026-04-22 19:50 | 30.14342 | -99.41048 | 19556 ft | 437 kts | 143° |
| 2026-04-22 19:51 | 30.11947 | -99.38919 | 18984 ft | 432 kts | 143° |
| 2026-04-22 19:51 | 30.09580 | -99.36813 | 18431 ft | 426 kts | 143° |
| 2026-04-22 19:51 | 30.07244 | -99.34738 | 17844 ft | 421 kts | 143° |
| 2026-04-22 19:51 | 30.04937 | -99.32690 | 17294 ft | 414 kts | 143° |
| 2026-04-22 19:52 | 30.02670 | -99.30678 | 16757 ft | 408 kts | 143° |
| 2026-04-22 19:52 | 30.00435 | -99.28696 | 16184 ft | 404 kts | 143° |
| 2026-04-22 19:52 | 29.98249 | -99.26758 | 15666 ft | 398 kts | 143° |
| 2026-04-22 19:52 | 29.96059 | -99.24818 | 15147 ft | 394 kts | 143° |
| 2026-04-22 19:53 | 29.93901 | -99.22897 | 14628 ft | 391 kts | 142° |
| 2026-04-22 19:53 | 29.92061 | -99.20619 | 14060 ft | 389 kts | 123° |
| 2026-04-22 19:53 | 29.90879 | -99.17835 | 13584 ft | 384 kts | 113° |
| 2026-04-22 19:53 | 29.89861 | -99.15003 | 13085 ft | 381 kts | 111° |
| 2026-04-22 19:54 | 29.88863 | -99.12184 | 12581 ft | 379 kts | 112° |
| 2026-04-22 19:54 | 29.87835 | -99.09402 | 12079 ft | 377 kts | 113° |
| 2026-04-22 19:54 | 29.86800 | -99.06638 | 11582 ft | 375 kts | 112° |
| 2026-04-22 19:54 | 29.85796 | -99.03910 | 11084 ft | 360 kts | 112° |
| 2026-04-22 19:55 | 29.84851 | -99.01331 | 10619 ft | 339 kts | 112° |
| 2026-04-22 19:55 | 29.83953 | -98.98888 | 10182 ft | 323 kts | 112° |
| 2026-04-22 19:55 | 29.83055 | -98.96576 | 9734 ft | 309 kts | 117° |
| 2026-04-22 19:55 | 29.82114 | -98.94403 | 9325 ft | 297 kts | 115° |
| 2026-04-22 19:56 | 29.81271 | -98.92278 | 8942 ft | 286 kts | 114° |
| 2026-04-22 19:56 | 29.80451 | -98.90265 | 8574 ft | 276 kts | 116° |
| 2026-04-22 19:56 | 29.79622 | -98.88312 | 8214 ft | 267 kts | 116° |
| 2026-04-22 19:56 | 29.78822 | -98.86421 | 7865 ft | 259 kts | 116° |
| 2026-04-22 19:57 | 29.78053 | -98.84575 | 7526 ft | 252 kts | 117° |
| 2026-04-22 19:57 | 29.77301 | -98.82774 | 7195 ft | 247 kts | 117° |
| 2026-04-22 19:57 | 29.76483 | -98.81084 | 6971 ft | 233 kts | 127° |
| 2026-04-22 19:57 | 29.75574 | -98.79621 | 6995 ft | 218 kts | 127° |
| 2026-04-22 19:58 | 29.74712 | -98.78173 | 6863 ft | 223 kts | 125° |
| 2026-04-22 19:58 | 29.73815 | -98.76687 | 6603 ft | 228 kts | 127° |
| 2026-04-22 19:58 | 29.72899 | -98.75188 | 6309 ft | 230 kts | 128° |
| 2026-04-22 19:58 | 29.71983 | -98.73686 | 6020 ft | 227 kts | 127° |
| 2026-04-22 19:59 | 29.71088 | -98.72212 | 5739 ft | 223 kts | 127° |
| 2026-04-22 20:00 | 29.66355 | -98.63487 | 4173 ft | 210 kts | 117° |
| 2026-04-22 20:00 | 29.65312 | -98.62383 | 3862 ft | 197 kts | 148° |
| 2026-04-22 20:01 | 29.64264 | -98.61444 | 3650 ft | 188 kts | 137° |
| 2026-04-22 20:01 | 29.63402 | -98.60341 | 3428 ft | 185 kts | 134° |
| 2026-04-22 20:01 | 29.62546 | -98.59230 | 3189 ft | 186 kts | 134° |
| 2026-04-22 20:01 | 29.61679 | -98.58119 | 2954 ft | 187 kts | 133° |
| 2026-04-22 20:02 | 29.60802 | -98.56985 | 2697 ft | 191 kts | 133° |
| 2026-04-22 20:02 | 29.59963 | -98.55894 | 2445 ft | 172 kts | 133° |
| 2026-04-22 20:02 | 29.59204 | -98.54915 | 2230 ft | 155 kts | 134° |
| 2026-04-22 20:02 | 29.58537 | -98.54054 | 2049 ft | 136 kts | 135° |
| 2026-04-22 20:03 | 29.57939 | -98.53280 | 1891 ft | 122 kts | 135° |
| 2026-04-22 20:03 | 29.57393 | -98.52576 | 1741 ft | 118 kts | 135° |
| 2026-04-22 20:03 | 29.56811 | -98.51848 | 1485 ft | 128 kts | 134° |
| 2026-04-22 20:03 | 29.56228 | -98.51069 | 1339 ft | 130 kts | 132° |
| 2026-04-22 20:04 | 29.55622 | -98.50301 | 1216 ft | 129 kts | 134° |
| 2026-04-22 20:04 | 29.55021 | -98.49530 | 1043 ft | 129 kts | 130° |
| 2026-04-22 20:04 | 29.54438 | -98.48766 | 920 ft | 124 kts | 129° |
| 2026-04-22 20:04 | 29.53886 | -98.48048 | 796 ft | 114 kts | 130° |
| 2026-04-22 20:05 | 29.53476 | -98.47524 | 795 ft | 62 kts | 131° |
| 2026-04-22 20:05 | 29.53282 | -98.47281 | 794 ft | 36 kts | 133° |
| 2026-04-22 20:05 | 29.53155 | -98.47114 | 795 ft | 21 kts | 131° |
| 2026-04-22 20:05 | 29.53131 | -98.46998 | 796 ft | 13 kts | 48° |
| 2026-04-22 20:06 | 29.53210 | -98.46915 | 795 ft | 21 kts | 42° |
| 2026-04-22 20:06 | 29.53327 | -98.46793 | 795 ft | 21 kts | 42° |
| 2026-04-22 20:06 | 29.53408 | -98.46712 | 795 ft | 14 kts | 39° |
| 2026-04-22 20:06 | 29.53482 | -98.46716 | 795 ft | 8 kts | 4° |
| 2026-04-22 20:07 | 29.53505 | -98.46714 | 795 ft | 0 kts | 5° |